sensor_id;sensor_type;location;lat;lon;timestamp;P1;durP1;ratioP1;P2;durP2;ratioP2
21943;SDS011;11136;48.778;9.126;2023-06-24T00:01:16;3.80;;;3.13;;
21943;SDS011;11136;48.778;9.126;2023-06-24T00:03:42;4.15;;;2.90;;
21943;SDS011;11136;48.778;9.126;2023-06-24T00:06:11;4.30;;;3.08;;
21943;SDS011;11136;48.778;9.126;2023-06-24T00:08:43;5.47;;;3.05;;
21943;SDS011;11136;48.778;9.126;2023-06-24T00:11:10;5.90;;;3.03;;
21943;SDS011;11136;48.778;9.126;2023-06-24T00:13:36;4.75;;;2.85;;
21943;SDS011;11136;48.778;9.126;2023-06-24T00:16:02;3.45;;;2.97;;
21943;SDS011;11136;48.778;9.126;2023-06-24T00:18:28;3.33;;;2.90;;
21943;SDS011;11136;48.778;9.126;2023-06-24T00:20:54;6.28;;;3.58;;
21943;SDS011;11136;48.778;9.126;2023-06-24T00:23:21;5.38;;;3.72;;
21943;SDS011;11136;48.778;9.126;2023-06-24T00:25:51;5.72;;;2.78;;
21943;SDS011;11136;48.778;9.126;2023-06-24T00:28:17;3.45;;;3.05;;
21943;SDS011;11136;48.778;9.126;2023-06-24T00:30:43;4.95;;;3.20;;
21943;SDS011;11136;48.778;9.126;2023-06-24T00:33:08;3.60;;;3.00;;
21943;SDS011;11136;48.778;9.126;2023-06-24T00:35:36;5.70;;;3.67;;
21943;SDS011;11136;48.778;9.126;2023-06-24T00:38:02;5.20;;;3.25;;
21943;SDS011;11136;48.778;9.126;2023-06-24T00:40:28;6.90;;;3.03;;
21943;SDS011;11136;48.778;9.126;2023-06-24T00:42:54;3.47;;;3.05;;
21943;SDS011;11136;48.778;9.126;2023-06-24T00:45:22;7.90;;;3.58;;
21943;SDS011;11136;48.778;9.126;2023-06-24T00:47:47;3.92;;;2.90;;
21943;SDS011;11136;48.778;9.126;2023-06-24T00:50:14;3.92;;;3.25;;
21943;SDS011;11136;48.778;9.126;2023-06-24T00:52:41;3.63;;;2.90;;
21943;SDS011;11136;48.778;9.126;2023-06-24T00:55:10;4.30;;;3.38;;
21943;SDS011;11136;48.778;9.126;2023-06-24T00:57:38;3.33;;;2.70;;
21943;SDS011;11136;48.778;9.126;2023-06-24T01:00:08;4.00;;;3.33;;
21943;SDS011;11136;48.778;9.126;2023-06-24T01:02:38;4.65;;;3.17;;
21943;SDS011;11136;48.778;9.126;2023-06-24T01:05:04;4.93;;;3.97;;
21943;SDS011;11136;48.778;9.126;2023-06-24T01:07:33;5.20;;;3.25;;
21943;SDS011;11136;48.778;9.126;2023-06-24T01:10:01;5.68;;;4.53;;
21943;SDS011;11136;48.778;9.126;2023-06-24T01:12:31;4.07;;;3.17;;
21943;SDS011;11136;48.778;9.126;2023-06-24T01:14:59;4.32;;;3.30;;
21943;SDS011;11136;48.778;9.126;2023-06-24T01:17:33;3.22;;;2.90;;
21943;SDS011;11136;48.778;9.126;2023-06-24T01:36:57;4.33;;;3.20;;
21943;SDS011;11136;48.778;9.126;2023-06-24T01:39:28;4.10;;;3.13;;
21943;SDS011;11136;48.778;9.126;2023-06-24T01:41:59;4.05;;;3.50;;
21943;SDS011;11136;48.778;9.126;2023-06-24T01:44:31;5.70;;;3.47;;
21943;SDS011;11136;48.778;9.126;2023-06-24T01:46:58;4.80;;;3.80;;
21943;SDS011;11136;48.778;9.126;2023-06-24T01:49:24;3.55;;;2.85;;
21943;SDS011;11136;48.778;9.126;2023-06-24T01:51:56;4.68;;;3.60;;
21943;SDS011;11136;48.778;9.126;2023-06-24T01:54:23;4.35;;;3.70;;
21943;SDS011;11136;48.778;9.126;2023-06-24T01:56:51;4.22;;;3.22;;
21943;SDS011;11136;48.778;9.126;2023-06-24T01:59:19;4.82;;;3.28;;
21943;SDS011;11136;48.778;9.126;2023-06-24T02:01:46;5.32;;;3.58;;
21943;SDS011;11136;48.778;9.126;2023-06-24T02:04:12;4.40;;;3.60;;
21943;SDS011;11136;48.778;9.126;2023-06-24T02:06:39;5.13;;;3.88;;
21943;SDS011;11136;48.778;9.126;2023-06-24T02:09:07;6.15;;;4.07;;
21943;SDS011;11136;48.778;9.126;2023-06-24T02:11:34;7.38;;;4.50;;
21943;SDS011;11136;48.778;9.126;2023-06-24T02:14:01;5.22;;;3.92;;
21943;SDS011;11136;48.778;9.126;2023-06-24T02:16:27;5.35;;;4.07;;
21943;SDS011;11136;48.778;9.126;2023-06-24T02:18:55;7.15;;;3.58;;
21943;SDS011;11136;48.778;9.126;2023-06-24T02:21:21;4.47;;;3.55;;
21943;SDS011;11136;48.778;9.126;2023-06-24T02:23:49;4.75;;;3.85;;
21943;SDS011;11136;48.778;9.126;2023-06-24T02:26:16;4.97;;;4.13;;
21943;SDS011;11136;48.778;9.126;2023-06-24T02:28:43;6.15;;;3.63;;
21943;SDS011;11136;48.778;9.126;2023-06-24T02:31:11;4.97;;;3.38;;
21943;SDS011;11136;48.778;9.126;2023-06-24T02:33:38;10.98;;;4.40;;
21943;SDS011;11136;48.778;9.126;2023-06-24T02:36:04;5.95;;;3.95;;
21943;SDS011;11136;48.778;9.126;2023-06-24T02:38:30;5.55;;;4.07;;
21943;SDS011;11136;48.778;9.126;2023-06-24T02:40:55;6.13;;;3.88;;
21943;SDS011;11136;48.778;9.126;2023-06-24T02:43:21;4.95;;;3.95;;
21943;SDS011;11136;48.778;9.126;2023-06-24T02:45:47;6.38;;;4.10;;
21943;SDS011;11136;48.778;9.126;2023-06-24T02:48:14;5.57;;;4.30;;
21943;SDS011;11136;48.778;9.126;2023-06-24T02:50:41;6.18;;;4.25;;
21943;SDS011;11136;48.778;9.126;2023-06-24T02:53:09;5.10;;;4.07;;
21943;SDS011;11136;48.778;9.126;2023-06-24T02:55:39;6.50;;;4.25;;
21943;SDS011;11136;48.778;9.126;2023-06-24T02:58:06;6.53;;;4.28;;
21943;SDS011;11136;48.778;9.126;2023-06-24T03:00:33;8.98;;;4.38;;
21943;SDS011;11136;48.778;9.126;2023-06-24T03:03:02;5.05;;;3.70;;
21943;SDS011;11136;48.778;9.126;2023-06-24T03:05:29;5.07;;;3.67;;
21943;SDS011;11136;48.778;9.126;2023-06-24T03:07:56;6.35;;;4.47;;
21943;SDS011;11136;48.778;9.126;2023-06-24T03:10:25;5.35;;;4.13;;
21943;SDS011;11136;48.778;9.126;2023-06-24T03:12:51;5.32;;;4.28;;
21943;SDS011;11136;48.778;9.126;2023-06-24T03:15:17;9.07;;;4.68;;
21943;SDS011;11136;48.778;9.126;2023-06-24T03:17:43;5.15;;;4.00;;
21943;SDS011;11136;48.778;9.126;2023-06-24T03:20:09;4.03;;;3.40;;
21943;SDS011;11136;48.778;9.126;2023-06-24T03:22:36;6.00;;;4.35;;
21943;SDS011;11136;48.778;9.126;2023-06-24T03:25:01;5.03;;;4.03;;
21943;SDS011;11136;48.778;9.126;2023-06-24T03:27:27;6.57;;;3.95;;
21943;SDS011;11136;48.778;9.126;2023-06-24T03:29:53;5.13;;;3.97;;
21943;SDS011;11136;48.778;9.126;2023-06-24T03:32:18;5.20;;;3.92;;
21943;SDS011;11136;48.778;9.126;2023-06-24T03:34:44;4.78;;;3.65;;
21943;SDS011;11136;48.778;9.126;2023-06-24T03:37:10;5.18;;;4.13;;
21943;SDS011;11136;48.778;9.126;2023-06-24T03:39:35;5.57;;;3.97;;
21943;SDS011;11136;48.778;9.126;2023-06-24T03:42:01;4.70;;;3.83;;
21943;SDS011;11136;48.778;9.126;2023-06-24T03:44:27;8.07;;;4.28;;
21943;SDS011;11136;48.778;9.126;2023-06-24T03:46:53;7.45;;;3.92;;
21943;SDS011;11136;48.778;9.126;2023-06-24T03:49:19;5.45;;;3.92;;
21943;SDS011;11136;48.778;9.126;2023-06-24T03:51:44;7.40;;;4.00;;
21943;SDS011;11136;48.778;9.126;2023-06-24T03:54:10;6.63;;;3.85;;
21943;SDS011;11136;48.778;9.126;2023-06-24T03:56:35;7.75;;;4.22;;
21943;SDS011;11136;48.778;9.126;2023-06-24T03:59:01;7.20;;;4.38;;
21943;SDS011;11136;48.778;9.126;2023-06-24T04:01:27;4.93;;;3.95;;
21943;SDS011;11136;48.778;9.126;2023-06-24T04:03:56;5.70;;;4.00;;
21943;SDS011;11136;48.778;9.126;2023-06-24T04:06:22;8.30;;;4.20;;
21943;SDS011;11136;48.778;9.126;2023-06-24T04:08:48;4.32;;;3.60;;
21943;SDS011;11136;48.778;9.126;2023-06-24T04:11:13;6.00;;;3.85;;
21943;SDS011;11136;48.778;9.126;2023-06-24T04:13:39;5.28;;;4.38;;
21943;SDS011;11136;48.778;9.126;2023-06-24T04:16:05;5.50;;;3.47;;
21943;SDS011;11136;48.778;9.126;2023-06-24T04:18:30;8.75;;;3.90;;
21943;SDS011;11136;48.778;9.126;2023-06-24T04:20:56;4.53;;;3.60;;
21943;SDS011;11136;48.778;9.126;2023-06-24T04:23:22;6.32;;;4.35;;
21943;SDS011;11136;48.778;9.126;2023-06-24T04:25:48;5.72;;;3.92;;
21943;SDS011;11136;48.778;9.126;2023-06-24T04:28:14;6.55;;;4.43;;
21943;SDS011;11136;48.778;9.126;2023-06-24T04:30:39;5.25;;;3.92;;
21943;SDS011;11136;48.778;9.126;2023-06-24T04:33:05;9.75;;;4.10;;
21943;SDS011;11136;48.778;9.126;2023-06-24T04:35:30;5.30;;;4.55;;
21943;SDS011;11136;48.778;9.126;2023-06-24T04:37:56;6.55;;;4.35;;
21943;SDS011;11136;48.778;9.126;2023-06-24T04:40:21;5.22;;;4.10;;
21943;SDS011;11136;48.778;9.126;2023-06-24T04:42:47;5.65;;;4.35;;
21943;SDS011;11136;48.778;9.126;2023-06-24T04:45:13;7.50;;;4.25;;
21943;SDS011;11136;48.778;9.126;2023-06-24T04:47:39;5.38;;;4.20;;
21943;SDS011;11136;48.778;9.126;2023-06-24T04:50:05;7.80;;;3.95;;
21943;SDS011;11136;48.778;9.126;2023-06-24T04:52:31;8.45;;;4.28;;
21943;SDS011;11136;48.778;9.126;2023-06-24T04:54:56;6.25;;;3.58;;
21943;SDS011;11136;48.778;9.126;2023-06-24T04:57:23;4.28;;;3.65;;
21943;SDS011;11136;48.778;9.126;2023-06-24T04:59:50;6.22;;;4.15;;
21943;SDS011;11136;48.778;9.126;2023-06-24T05:02:16;6.18;;;4.50;;
21943;SDS011;11136;48.778;9.126;2023-06-24T05:04:41;5.85;;;4.45;;
21943;SDS011;11136;48.778;9.126;2023-06-24T05:07:07;6.85;;;4.25;;
21943;SDS011;11136;48.778;9.126;2023-06-24T05:09:32;6.50;;;4.03;;
21943;SDS011;11136;48.778;9.126;2023-06-24T05:11:58;7.75;;;4.55;;
21943;SDS011;11136;48.778;9.126;2023-06-24T05:14:23;5.30;;;4.32;;
21943;SDS011;11136;48.778;9.126;2023-06-24T05:16:49;5.55;;;4.18;;
21943;SDS011;11136;48.778;9.126;2023-06-24T05:19:15;5.72;;;4.30;;
21943;SDS011;11136;48.778;9.126;2023-06-24T05:21:41;4.63;;;3.72;;
21943;SDS011;11136;48.778;9.126;2023-06-24T05:24:06;5.10;;;3.80;;
21943;SDS011;11136;48.778;9.126;2023-06-24T05:26:32;7.13;;;4.18;;
21943;SDS011;11136;48.778;9.126;2023-06-24T05:28:57;5.85;;;4.30;;
21943;SDS011;11136;48.778;9.126;2023-06-24T05:31:23;4.70;;;4.05;;
21943;SDS011;11136;48.778;9.126;2023-06-24T05:33:48;5.57;;;4.20;;
21943;SDS011;11136;48.778;9.126;2023-06-24T05:36:14;7.82;;;4.50;;
21943;SDS011;11136;48.778;9.126;2023-06-24T05:38:40;5.15;;;4.10;;
21943;SDS011;11136;48.778;9.126;2023-06-24T05:41:05;5.75;;;4.50;;
21943;SDS011;11136;48.778;9.126;2023-06-24T05:43:31;6.25;;;4.00;;
21943;SDS011;11136;48.778;9.126;2023-06-24T05:45:56;5.50;;;4.18;;
21943;SDS011;11136;48.778;9.126;2023-06-24T05:48:22;4.32;;;3.63;;
21943;SDS011;11136;48.778;9.126;2023-06-24T05:50:47;7.05;;;4.60;;
21943;SDS011;11136;48.778;9.126;2023-06-24T05:53:13;5.28;;;4.78;;
21943;SDS011;11136;48.778;9.126;2023-06-24T05:55:38;5.80;;;4.05;;
21943;SDS011;11136;48.778;9.126;2023-06-24T05:58:04;4.47;;;3.60;;
21943;SDS011;11136;48.778;9.126;2023-06-24T06:00:29;5.38;;;4.25;;
21943;SDS011;11136;48.778;9.126;2023-06-24T06:02:55;4.88;;;3.72;;
21943;SDS011;11136;48.778;9.126;2023-06-24T06:05:20;5.82;;;3.90;;
21943;SDS011;11136;48.778;9.126;2023-06-24T06:07:46;4.88;;;3.47;;
21943;SDS011;11136;48.778;9.126;2023-06-24T06:10:13;5.05;;;3.80;;
21943;SDS011;11136;48.778;9.126;2023-06-24T06:12:42;4.75;;;3.97;;
21943;SDS011;11136;48.778;9.126;2023-06-24T06:15:08;5.90;;;4.40;;
21943;SDS011;11136;48.778;9.126;2023-06-24T06:17:34;7.60;;;4.15;;
21943;SDS011;11136;48.778;9.126;2023-06-24T06:20:00;5.13;;;3.95;;
21943;SDS011;11136;48.778;9.126;2023-06-24T06:22:25;6.22;;;3.90;;
21943;SDS011;11136;48.778;9.126;2023-06-24T06:24:51;6.00;;;3.53;;
21943;SDS011;11136;48.778;9.126;2023-06-24T06:27:16;5.53;;;4.43;;
21943;SDS011;11136;48.778;9.126;2023-06-24T06:29:42;7.80;;;3.92;;
21943;SDS011;11136;48.778;9.126;2023-06-24T06:32:08;5.78;;;3.90;;
21943;SDS011;11136;48.778;9.126;2023-06-24T06:34:33;4.82;;;3.83;;
21943;SDS011;11136;48.778;9.126;2023-06-24T06:36:59;5.00;;;3.67;;
21943;SDS011;11136;48.778;9.126;2023-06-24T06:39:24;4.45;;;3.53;;
21943;SDS011;11136;48.778;9.126;2023-06-24T06:41:50;4.75;;;3.58;;
21943;SDS011;11136;48.778;9.126;2023-06-24T06:44:15;5.28;;;3.88;;
21943;SDS011;11136;48.778;9.126;2023-06-24T06:46:41;4.60;;;3.55;;
21943;SDS011;11136;48.778;9.126;2023-06-24T06:49:06;4.38;;;3.33;;
21943;SDS011;11136;48.778;9.126;2023-06-24T06:51:32;5.60;;;3.50;;
21943;SDS011;11136;48.778;9.126;2023-06-24T06:53:59;4.20;;;3.70;;
21943;SDS011;11136;48.778;9.126;2023-06-24T06:56:24;4.80;;;3.17;;
21943;SDS011;11136;48.778;9.126;2023-06-24T06:58:51;4.25;;;3.35;;
21943;SDS011;11136;48.778;9.126;2023-06-24T07:01:17;4.82;;;3.30;;
21943;SDS011;11136;48.778;9.126;2023-06-24T07:03:43;3.95;;;3.15;;
21943;SDS011;11136;48.778;9.126;2023-06-24T07:06:09;3.92;;;3.03;;
21943;SDS011;11136;48.778;9.126;2023-06-24T07:08:35;3.85;;;2.95;;
21943;SDS011;11136;48.778;9.126;2023-06-24T07:11:01;3.83;;;3.08;;
21943;SDS011;11136;48.778;9.126;2023-06-24T07:13:27;4.28;;;2.90;;
21943;SDS011;11136;48.778;9.126;2023-06-24T07:15:53;3.92;;;2.88;;
21943;SDS011;11136;48.778;9.126;2023-06-24T07:18:18;3.78;;;2.88;;
21943;SDS011;11136;48.778;9.126;2023-06-24T07:20:44;3.20;;;2.90;;
21943;SDS011;11136;48.778;9.126;2023-06-24T07:23:10;4.00;;;3.28;;
21943;SDS011;11136;48.778;9.126;2023-06-24T07:25:36;3.65;;;2.60;;
21943;SDS011;11136;48.778;9.126;2023-06-24T07:28:02;4.97;;;2.55;;
21943;SDS011;11136;48.778;9.126;2023-06-24T07:30:28;4.25;;;2.88;;
21943;SDS011;11136;48.778;9.126;2023-06-24T07:32:53;3.85;;;3.22;;
21943;SDS011;11136;48.778;9.126;2023-06-24T07:35:19;3.90;;;3.25;;
21943;SDS011;11136;48.778;9.126;2023-06-24T07:37:44;2.90;;;2.58;;
21943;SDS011;11136;48.778;9.126;2023-06-24T07:40:10;3.17;;;2.72;;
21943;SDS011;11136;48.778;9.126;2023-06-24T07:42:36;4.55;;;3.05;;
21943;SDS011;11136;48.778;9.126;2023-06-24T07:45:01;5.97;;;3.15;;
21943;SDS011;11136;48.778;9.126;2023-06-24T07:47:27;4.82;;;3.40;;
21943;SDS011;11136;48.778;9.126;2023-06-24T07:49:53;3.78;;;2.80;;
21943;SDS011;11136;48.778;9.126;2023-06-24T07:52:18;7.72;;;3.20;;
21943;SDS011;11136;48.778;9.126;2023-06-24T07:54:44;4.88;;;3.22;;
21943;SDS011;11136;48.778;9.126;2023-06-24T07:57:10;4.88;;;3.40;;
21943;SDS011;11136;48.778;9.126;2023-06-24T07:59:35;3.63;;;2.75;;
21943;SDS011;11136;48.778;9.126;2023-06-24T08:02:01;6.40;;;3.28;;
21943;SDS011;11136;48.778;9.126;2023-06-24T08:04:27;3.10;;;2.67;;
21943;SDS011;11136;48.778;9.126;2023-06-24T08:06:52;4.68;;;3.22;;
21943;SDS011;11136;48.778;9.126;2023-06-24T08:09:18;3.90;;;3.30;;
21943;SDS011;11136;48.778;9.126;2023-06-24T08:11:44;3.83;;;2.97;;
21943;SDS011;11136;48.778;9.126;2023-06-24T08:14:10;5.95;;;3.83;;
21943;SDS011;11136;48.778;9.126;2023-06-24T08:16:35;4.45;;;2.90;;
21943;SDS011;11136;48.778;9.126;2023-06-24T08:19:01;5.70;;;3.20;;
21943;SDS011;11136;48.778;9.126;2023-06-24T08:21:26;3.88;;;2.85;;
21943;SDS011;11136;48.778;9.126;2023-06-24T08:23:52;4.53;;;2.78;;
21943;SDS011;11136;48.778;9.126;2023-06-24T08:26:19;4.30;;;2.70;;
21943;SDS011;11136;48.778;9.126;2023-06-24T08:28:46;4.10;;;2.80;;
21943;SDS011;11136;48.778;9.126;2023-06-24T08:31:12;3.75;;;3.17;;
21943;SDS011;11136;48.778;9.126;2023-06-24T08:33:38;5.55;;;2.78;;
21943;SDS011;11136;48.778;9.126;2023-06-24T08:36:04;3.60;;;2.95;;
21943;SDS011;11136;48.778;9.126;2023-06-24T08:38:29;3.85;;;3.03;;
21943;SDS011;11136;48.778;9.126;2023-06-24T08:40:55;3.50;;;2.92;;
21943;SDS011;11136;48.778;9.126;2023-06-24T08:43:21;5.28;;;3.20;;
21943;SDS011;11136;48.778;9.126;2023-06-24T08:45:46;5.65;;;2.92;;
21943;SDS011;11136;48.778;9.126;2023-06-24T08:48:12;4.07;;;2.95;;
21943;SDS011;11136;48.778;9.126;2023-06-24T08:50:50;3.85;;;2.70;;
21943;SDS011;11136;48.778;9.126;2023-06-24T08:53:18;4.03;;;3.00;;
21943;SDS011;11136;48.778;9.126;2023-06-24T08:55:45;4.22;;;2.65;;
21943;SDS011;11136;48.778;9.126;2023-06-24T08:58:12;4.28;;;3.20;;
21943;SDS011;11136;48.778;9.126;2023-06-24T09:00:38;4.80;;;3.08;;
21943;SDS011;11136;48.778;9.126;2023-06-24T09:03:04;3.30;;;2.90;;
21943;SDS011;11136;48.778;9.126;2023-06-24T09:05:30;4.22;;;3.05;;
21943;SDS011;11136;48.778;9.126;2023-06-24T09:07:55;3.50;;;3.05;;
21943;SDS011;11136;48.778;9.126;2023-06-24T09:10:42;5.05;;;3.33;;
21943;SDS011;11136;48.778;9.126;2023-06-24T09:13:07;4.45;;;2.90;;
21943;SDS011;11136;48.778;9.126;2023-06-24T09:15:33;4.78;;;2.92;;
21943;SDS011;11136;48.778;9.126;2023-06-24T09:17:59;3.53;;;2.85;;
21943;SDS011;11136;48.778;9.126;2023-06-24T09:20:26;5.30;;;2.55;;
21943;SDS011;11136;48.778;9.126;2023-06-24T09:22:57;3.78;;;2.95;;
21943;SDS011;11136;48.778;9.126;2023-06-24T09:25:23;5.95;;;3.35;;
21943;SDS011;11136;48.778;9.126;2023-06-24T09:27:49;4.70;;;3.30;;
21943;SDS011;11136;48.778;9.126;2023-06-24T09:30:20;2.90;;;2.60;;
21943;SDS011;11136;48.778;9.126;2023-06-24T09:32:49;3.78;;;3.10;;
21943;SDS011;11136;48.778;9.126;2023-06-24T09:35:22;2.50;;;2.28;;
21943;SDS011;11136;48.778;9.126;2023-06-24T09:37:53;2.95;;;2.65;;
21943;SDS011;11136;48.778;9.126;2023-06-24T09:40:24;6.43;;;2.90;;
21943;SDS011;11136;48.778;9.126;2023-06-24T09:42:56;3.50;;;2.95;;
21943;SDS011;11136;48.778;9.126;2023-06-24T09:45:26;4.68;;;3.30;;
21943;SDS011;11136;48.778;9.126;2023-06-24T09:47:53;5.60;;;2.55;;
21943;SDS011;11136;48.778;9.126;2023-06-24T09:50:20;3.33;;;2.80;;
21943;SDS011;11136;48.778;9.126;2023-06-24T09:52:46;3.65;;;2.80;;
21943;SDS011;11136;48.778;9.126;2023-06-24T09:55:14;6.28;;;2.60;;
21943;SDS011;11136;48.778;9.126;2023-06-24T09:57:41;4.88;;;2.85;;
21943;SDS011;11136;48.778;9.126;2023-06-24T10:00:13;3.38;;;2.65;;
21943;SDS011;11136;48.778;9.126;2023-06-24T10:02:42;5.50;;;2.50;;
21943;SDS011;11136;48.778;9.126;2023-06-24T10:05:09;3.72;;;2.65;;
21943;SDS011;11136;48.778;9.126;2023-06-24T10:07:36;2.90;;;2.60;;
21943;SDS011;11136;48.778;9.126;2023-06-24T10:10:03;3.45;;;2.55;;
21943;SDS011;11136;48.778;9.126;2023-06-24T10:12:29;6.90;;;2.67;;
21943;SDS011;11136;48.778;9.126;2023-06-24T10:14:57;2.67;;;2.30;;
21943;SDS011;11136;48.778;9.126;2023-06-24T10:17:23;4.93;;;2.65;;
21943;SDS011;11136;48.778;9.126;2023-06-24T10:19:51;3.45;;;2.55;;
21943;SDS011;11136;48.778;9.126;2023-06-24T10:22:18;4.43;;;2.40;;
21943;SDS011;11136;48.778;9.126;2023-06-24T10:24:48;3.97;;;2.30;;
21943;SDS011;11136;48.778;9.126;2023-06-24T10:27:26;3.53;;;2.70;;
21943;SDS011;11136;48.778;9.126;2023-06-24T10:29:53;2.92;;;2.40;;
21943;SDS011;11136;48.778;9.126;2023-06-24T10:32:21;4.40;;;2.90;;
21943;SDS011;11136;48.778;9.126;2023-06-24T10:34:47;4.10;;;2.40;;
21943;SDS011;11136;48.778;9.126;2023-06-24T10:37:25;3.15;;;2.30;;
21943;SDS011;11136;48.778;9.126;2023-06-24T10:39:58;2.08;;;1.67;;
21943;SDS011;11136;48.778;9.126;2023-06-24T10:47:35;3.05;;;2.50;;
21943;SDS011;11136;48.778;9.126;2023-06-24T10:50:02;6.47;;;2.45;;
21943;SDS011;11136;48.778;9.126;2023-06-24T10:52:28;5.28;;;2.60;;
21943;SDS011;11136;48.778;9.126;2023-06-24T10:54:55;4.47;;;2.83;;
21943;SDS011;11136;48.778;9.126;2023-06-24T10:57:23;3.15;;;2.58;;
21943;SDS011;11136;48.778;9.126;2023-06-24T10:59:53;3.45;;;2.30;;
21943;SDS011;11136;48.778;9.126;2023-06-24T11:02:21;3.80;;;2.83;;
21943;SDS011;11136;48.778;9.126;2023-06-24T11:07:22;3.40;;;2.63;;
21943;SDS011;11136;48.778;9.126;2023-06-24T11:09:50;4.13;;;3.03;;
21943;SDS011;11136;48.778;9.126;2023-06-24T11:12:24;3.38;;;2.72;;
21943;SDS011;11136;48.778;9.126;2023-06-24T11:14:55;4.15;;;2.50;;
21943;SDS011;11136;48.778;9.126;2023-06-24T11:17:22;3.63;;;2.20;;
21943;SDS011;11136;48.778;9.126;2023-06-24T11:19:48;3.65;;;2.40;;
21943;SDS011;11136;48.778;9.126;2023-06-24T11:22:14;3.25;;;2.40;;
21943;SDS011;11136;48.778;9.126;2023-06-24T11:24:40;3.30;;;2.25;;
21943;SDS011;11136;48.778;9.126;2023-06-24T11:27:06;3.92;;;2.47;;
21943;SDS011;11136;48.778;9.126;2023-06-24T11:29:33;3.28;;;2.30;;
21943;SDS011;11136;48.778;9.126;2023-06-24T11:32:00;4.30;;;2.28;;
21943;SDS011;11136;48.778;9.126;2023-06-24T11:34:27;4.28;;;2.60;;
21943;SDS011;11136;48.778;9.126;2023-06-24T11:36:53;2.72;;;2.33;;
21943;SDS011;11136;48.778;9.126;2023-06-24T11:39:25;16.65;;;2.63;;
21943;SDS011;11136;48.778;9.126;2023-06-24T11:41:52;2.95;;;2.22;;
21943;SDS011;11136;48.778;9.126;2023-06-24T11:44:19;3.17;;;2.40;;
21943;SDS011;11136;48.778;9.126;2023-06-24T11:46:46;3.13;;;2.60;;
21943;SDS011;11136;48.778;9.126;2023-06-24T11:49:12;3.88;;;2.90;;
21943;SDS011;11136;48.778;9.126;2023-06-24T11:51:45;2.80;;;2.28;;
21943;SDS011;11136;48.778;9.126;2023-06-24T11:54:13;3.20;;;2.67;;
21943;SDS011;11136;48.778;9.126;2023-06-24T11:56:41;3.67;;;2.83;;
21943;SDS011;11136;48.778;9.126;2023-06-24T11:59:18;5.18;;;2.55;;
21943;SDS011;11136;48.778;9.126;2023-06-24T12:01:45;3.67;;;2.17;;
21943;SDS011;11136;48.778;9.126;2023-06-24T12:04:16;3.13;;;2.42;;
21943;SDS011;11136;48.778;9.126;2023-06-24T12:06:42;3.78;;;2.92;;
21943;SDS011;11136;48.778;9.126;2023-06-24T12:09:08;4.28;;;3.10;;
21943;SDS011;11136;48.778;9.126;2023-06-24T12:11:34;3.13;;;2.67;;
21943;SDS011;11136;48.778;9.126;2023-06-24T12:14:00;2.60;;;2.35;;
21943;SDS011;11136;48.778;9.126;2023-06-24T12:16:26;4.15;;;2.40;;
21943;SDS011;11136;48.778;9.126;2023-06-24T12:18:52;3.10;;;2.42;;
21943;SDS011;11136;48.778;9.126;2023-06-24T12:21:18;2.65;;;2.35;;
21943;SDS011;11136;48.778;9.126;2023-06-24T12:23:44;4.82;;;2.50;;
21943;SDS011;11136;48.778;9.126;2023-06-24T12:26:10;3.08;;;2.50;;
21943;SDS011;11136;48.778;9.126;2023-06-24T12:28:36;3.55;;;2.97;;
21943;SDS011;11136;48.778;9.126;2023-06-24T12:31:01;2.63;;;2.05;;
21943;SDS011;11136;48.778;9.126;2023-06-24T12:33:28;3.55;;;2.53;;
21943;SDS011;11136;48.778;9.126;2023-06-24T12:35:53;3.50;;;2.70;;
21943;SDS011;11136;48.778;9.126;2023-06-24T12:38:19;3.88;;;2.75;;
21943;SDS011;11136;48.778;9.126;2023-06-24T12:40:44;3.55;;;2.67;;
21943;SDS011;11136;48.778;9.126;2023-06-24T12:43:10;3.88;;;2.33;;
21943;SDS011;11136;48.778;9.126;2023-06-24T12:45:36;4.93;;;3.28;;
21943;SDS011;11136;48.778;9.126;2023-06-24T12:48:08;4.47;;;2.70;;
21943;SDS011;11136;48.778;9.126;2023-06-24T12:50:34;4.00;;;2.78;;
21943;SDS011;11136;48.778;9.126;2023-06-24T12:53:00;6.18;;;2.70;;
21943;SDS011;11136;48.778;9.126;2023-06-24T12:55:25;3.38;;;2.28;;
21943;SDS011;11136;48.778;9.126;2023-06-24T12:57:51;5.32;;;2.42;;
21943;SDS011;11136;48.778;9.126;2023-06-24T13:00:18;3.38;;;2.50;;
21943;SDS011;11136;48.778;9.126;2023-06-24T13:02:45;2.75;;;2.42;;
21943;SDS011;11136;48.778;9.126;2023-06-24T13:05:11;3.85;;;2.60;;
21943;SDS011;11136;48.778;9.126;2023-06-24T13:07:36;2.65;;;2.20;;
21943;SDS011;11136;48.778;9.126;2023-06-24T13:10:02;4.20;;;3.05;;
21943;SDS011;11136;48.778;9.126;2023-06-24T13:12:30;3.10;;;2.50;;
21943;SDS011;11136;48.778;9.126;2023-06-24T13:14:59;3.28;;;2.50;;
21943;SDS011;11136;48.778;9.126;2023-06-24T13:17:25;3.92;;;2.40;;
21943;SDS011;11136;48.778;9.126;2023-06-24T13:19:51;2.70;;;2.38;;
21943;SDS011;11136;48.778;9.126;2023-06-24T13:22:17;4.00;;;2.70;;
21943;SDS011;11136;48.778;9.126;2023-06-24T13:24:43;3.50;;;2.60;;
21943;SDS011;11136;48.778;9.126;2023-06-24T13:27:09;3.17;;;2.65;;
21943;SDS011;11136;48.778;9.126;2023-06-24T13:29:34;3.08;;;2.47;;
21943;SDS011;11136;48.778;9.126;2023-06-24T13:32:00;3.30;;;2.60;;
21943;SDS011;11136;48.778;9.126;2023-06-24T13:34:26;3.90;;;2.47;;
21943;SDS011;11136;48.778;9.126;2023-06-24T13:36:51;2.80;;;2.35;;
21943;SDS011;11136;48.778;9.126;2023-06-24T13:39:17;2.67;;;2.20;;
21943;SDS011;11136;48.778;9.126;2023-06-24T13:41:46;2.83;;;2.50;;
21943;SDS011;11136;48.778;9.126;2023-06-24T13:44:12;3.13;;;2.80;;
21943;SDS011;11136;48.778;9.126;2023-06-24T13:46:38;3.45;;;3.05;;
21943;SDS011;11136;48.778;9.126;2023-06-24T13:49:04;3.35;;;2.47;;
21943;SDS011;11136;48.778;9.126;2023-06-24T13:51:29;3.00;;;2.72;;
21943;SDS011;11136;48.778;9.126;2023-06-24T13:53:55;3.38;;;2.70;;
21943;SDS011;11136;48.778;9.126;2023-06-24T13:56:22;2.60;;;2.40;;
21943;SDS011;11136;48.778;9.126;2023-06-24T13:58:49;3.13;;;2.30;;
21943;SDS011;11136;48.778;9.126;2023-06-24T14:01:15;2.85;;;2.58;;
21943;SDS011;11136;48.778;9.126;2023-06-24T14:03:41;3.10;;;2.78;;
21943;SDS011;11136;48.778;9.126;2023-06-24T14:06:08;2.97;;;2.50;;
21943;SDS011;11136;48.778;9.126;2023-06-24T14:08:34;3.15;;;2.45;;
21943;SDS011;11136;48.778;9.126;2023-06-24T14:11:00;2.80;;;2.58;;
21943;SDS011;11136;48.778;9.126;2023-06-24T14:13:27;2.63;;;2.42;;
21943;SDS011;11136;48.778;9.126;2023-06-24T14:15:54;3.38;;;2.50;;
21943;SDS011;11136;48.778;9.126;2023-06-24T14:18:20;4.63;;;2.45;;
21943;SDS011;11136;48.778;9.126;2023-06-24T14:20:46;9.23;;;2.92;;
21943;SDS011;11136;48.778;9.126;2023-06-24T14:23:12;4.50;;;2.85;;
21943;SDS011;11136;48.778;9.126;2023-06-24T14:25:38;3.42;;;2.50;;
21943;SDS011;11136;48.778;9.126;2023-06-24T14:28:04;3.53;;;2.67;;
21943;SDS011;11136;48.778;9.126;2023-06-24T14:30:30;2.80;;;2.45;;
21943;SDS011;11136;48.778;9.126;2023-06-24T14:32:56;4.70;;;2.75;;
21943;SDS011;11136;48.778;9.126;2023-06-24T14:35:21;4.28;;;2.80;;
21943;SDS011;11136;48.778;9.126;2023-06-24T14:37:47;5.22;;;3.28;;
21943;SDS011;11136;48.778;9.126;2023-06-24T14:40:12;5.50;;;2.45;;
21943;SDS011;11136;48.778;9.126;2023-06-24T14:42:38;2.55;;;2.35;;
21943;SDS011;11136;48.778;9.126;2023-06-24T14:45:03;4.07;;;2.92;;
21943;SDS011;11136;48.778;9.126;2023-06-24T14:47:29;3.97;;;3.05;;
21943;SDS011;11136;48.778;9.126;2023-06-24T14:49:56;2.90;;;2.63;;
21943;SDS011;11136;48.778;9.126;2023-06-24T14:52:22;6.20;;;2.53;;
21943;SDS011;11136;48.778;9.126;2023-06-24T14:54:47;4.10;;;2.50;;
21943;SDS011;11136;48.778;9.126;2023-06-24T14:57:13;3.95;;;2.50;;
21943;SDS011;11136;48.778;9.126;2023-06-24T14:59:40;2.92;;;2.63;;
21943;SDS011;11136;48.778;9.126;2023-06-24T15:02:06;3.53;;;2.75;;
21943;SDS011;11136;48.778;9.126;2023-06-24T15:04:32;4.30;;;2.90;;
21943;SDS011;11136;48.778;9.126;2023-06-24T15:06:58;3.53;;;2.58;;
21943;SDS011;11136;48.778;9.126;2023-06-24T15:09:24;2.47;;;2.28;;